Latest Coastal Weather Observations for Neptune Island

IDT60701

Issued at 8:55 am EDT Saturday 29 November 2014 (issued every 10 minutes, with the page automatically refreshed every 10 minutes)

About coastal observations | Map of coastal stations | Coastal observations for TAS | Marine services | Other Formats
Station Details ID: 018115 Name: NEPTUNE ISLAND Lat: -35.34 Lon: 136.12 Height: 32.0 m
Data from the previous 72 hours. | See also: Recent months at Neptune Island
Date/Time
EDT
Temp

°C
Wind Pressure Rain
since 9am
mm
Weather Cloud Vis
km
Sea
Height
m
Swell
Dir
 
Speed
knots
Gust
knots
hPa Trend Height
m
Period
s
Dir
29/08:30am 18.5 E 13 15 1011.0 - 0.0 - - - - - - -
29/08:00am 17.9 E 11 13 1011.3 - 0.0 - - - - - - -
29/07:30am 17.4 E 10 12 1011.3 - 0.0 - - - - - - -
29/07:00am 17.0 ESE 9 11 1011.6 - 0.0 - - - - - - -
29/06:30am 17.0 ESE 9 11 1011.4 - 0.0 - - - - - - -
29/06:00am 16.9 ESE 11 13 1011.3 - 0.0 - - - - - - -
29/05:30am 16.8 E 12 14 1011.0 - 0.0 - - - - - - -
29/05:00am 16.7 E 10 13 1011.2 - 0.0 - - - - - - -
29/04:30am 16.8 E 11 14 1011.3 - 0.0 - - - - - - -
29/04:00am 16.9 E 12 15 1011.5 - 0.0 - - - - - - -
29/03:30am 16.8 E 15 18 1011.4 - 0.0 - - - - - - -
29/03:00am 16.8 E 15 17 1012.0 - 0.0 - - - - - - -
29/02:30am 16.7 E 16 19 1012.3 - 0.0 - - - - - - -
29/02:00am 16.7 E 17 20 1012.6 - 0.0 - - - - - - -
29/01:30am 16.7 E 16 20 1012.9 - 0.0 - - - - - - -
29/01:00am 16.6 E 17 21 1013.1 - 0.0 - - - - - - -
29/12:30am 17.0 E 13 16 1013.5 - 0.0 - - - - - - -
29/12:00am 17.0 E 14 18 1014.0 - 0.0 - - - - - - -
 
Date/Time
EDT
Temp

°C
Wind Pressure Rain
since 9am
mm
Weather Cloud Vis
km
Sea
Height
m
Swell
Dir
 
Speed
knots
Gust
knots
hPa Trend Height
m
Period
s
Dir
28/11:30pm 17.2 ESE 16 19 1014.5 - 0.0 - - - - - - -
28/11:00pm 17.6 ESE 14 18 1014.8 - 0.0 - - - - - - -
28/10:30pm 17.6 ESE 12 14 1015.1 - 0.0 - - - - - - -
28/10:00pm 17.7 SE 12 15 1015.0 - 0.0 - - - - - - -
28/09:30pm 18.0 SE 11 14 1015.0 - 0.0 - - - - - - -
28/09:00pm 18.0 SE 11 13 1015.1 - 0.0 - - - - - - -
28/08:30pm 18.4 SE 11 12 1014.9 - 0.0 - - - - - - -
28/08:00pm 18.7 SE 13 16 1014.8 - 0.0 - - - - - - -
28/07:30pm 19.1 SE 14 17 1014.9 - 0.0 - - - - - - -
28/07:00pm 19.2 SSE 13 15 1014.9 - 0.0 - - - - - - -
28/06:30pm 19.5 SSE 11 14 1015.1 - 0.0 - - - - - - -
28/06:00pm 19.9 SSE 13 15 1015.2 - 0.0 - - - - - - -
28/05:30pm 19.3 SSE 12 15 1015.5 - 0.0 - - - - - - -
28/05:00pm 20.4 SSE 13 14 1015.9 - 0.0 - - - - - - -
28/04:30pm 20.4 SSE 12 15 1016.1 - 0.0 - - - - - - -
28/04:00pm 20.0 SSE 11 13 1016.5 - 0.0 - - - - - - -
28/03:30pm 20.9 SSE 9 10 1016.8 - 0.0 - - - - - - -
28/03:00pm 19.3 SSE 9 11 1017.1 - 0.0 - - - - - - -
28/02:30pm 20.4 SE 8 11 1017.6 - 0.0 - - - - - - -
28/02:00pm 20.4 ESE 11 13 1017.9 - 0.0 - - - - - - -
28/01:30pm 20.8 ESE 12 14 1018.2 - 0.0 - - - - - - -
28/01:00pm 20.6 ESE 13 16 1018.5 - 0.0 - - - - - - -
28/12:30pm 20.4 E 14 18 1018.7 - 0.0 - - - - - - -
28/12:00pm 19.9 E 14 18 1019.0 - 0.0 - - - - - - -
28/11:30am 19.4 E 15 18 1019.1 - 0.0 - - - - - - -
28/11:00am 19.7 E 15 19 1019.2 - 0.0 - - - - - - -
28/10:30am 18.2 E 15 19 1019.4 - 0.0 - - - - - - -
28/10:00am 18.1 E 16 19 1019.6 - 0.0 - - - - - - -
28/09:30am 18.2 E 15 19 1019.9 - - - - - - - - -
28/09:00am 17.6 E 17 21 1019.9 - - - - - - - - -
28/08:30am 16.8 E 18 22 1019.8 - - - - - - - - -
28/08:00am 15.9 ESE 15 18 1019.9 - - - - - - - - -
28/07:30am 15.7 E 15 18 1019.8 - - - - - - - - -
28/07:00am 15.0 E 15 19 1019.7 - - - - - - - - -
28/06:30am 14.7 ESE 17 21 1019.5 - - - - - - - - -
28/06:00am 14.8 ESE 19 22 1019.3 - - - - - - - - -
28/05:30am 14.8 ESE 14 17 1019.4 - - - - - - - - -
28/05:00am 14.7 ESE 14 17 1019.4 - - - - - - - - -
28/04:30am 14.8 SE 16 19 1019.4 - 0.0 - - - - - - -
28/04:00am 14.7 SE 15 18 1019.5 - 0.0 - - - - - - -
28/03:30am 14.9 SE 17 20 1019.5 - 0.0 - - - - - - -
28/03:00am 15.1 SE 18 21 1019.4 - 0.0 - - - - - - -
28/02:30am 14.7 SE 18 21 1019.6 - 0.0 - - - - - - -
28/02:00am 14.8 ESE 18 21 1019.9 - 0.0 - - - - - - -
28/01:30am 14.9 ESE 20 24 1020.3 - 0.0 - - - - - - -
28/01:00am 14.8 ESE 21 24 1020.3 - 0.0 - - - - - - -
28/12:30am 14.8 ESE 21 24 1020.8 - 0.0 - - - - - - -
28/12:00am 15.2 ESE 18 21 1021.1 - 0.0 - - - - - - -
 
Date/Time
EDT
Temp

°C
Wind Pressure Rain
since 9am
mm
Weather Cloud Vis
km
Sea
Height
m
Swell
Dir
 
Speed
knots
Gust
knots
hPa Trend Height
m
Period
s
Dir
27/11:30pm 15.4 ESE 20 23 1020.9 - 0.0 - - - - - - -
27/11:00pm 15.7 ESE 19 23 1021.1 - 0.0 - - - - - - -
27/10:30pm 16.3 ESE 19 22 1021.3 - 0.0 - - - - - - -
27/10:00pm 16.5 E 16 19 1021.3 - 0.0 - - - - - - -
27/09:30pm 17.0 ESE 12 14 1021.3 - 0.0 - - - - - - -
27/09:00pm 17.1 E 8 10 1021.3 - 0.0 - - - - - - -
27/08:30pm 17.6 ESE 11 14 1021.4 - 0.0 - - - - - - -
27/08:00pm 17.8 SE 16 19 1021.3 - 0.0 - - - - - - -
27/07:30pm 18.3 SE 16 20 1021.3 - 0.0 - - - - - - -
27/07:00pm 18.5 SE 16 19 1021.3 - 0.0 - - - - - - -
27/06:30pm 18.7 SE 16 21 1021.4 - 0.0 - - - - - - -
27/06:00pm 19.2 SSE 17 19 1021.3 - 0.0 - - - - - - -
27/05:30pm 19.5 SSE 14 16 1021.7 - 0.0 - - - - - - -
27/05:00pm 19.5 SSE 11 14 1021.7 - 0.0 - - - - - - -
27/04:30pm 19.9 SSE 11 12 1021.9 - 0.0 - - - - - - -
27/04:00pm 20.6 SSE 11 14 1022.1 - 0.0 - - - - - - -
27/03:30pm 20.2 SE 11 13 1022.5 - 0.0 - - - - - - -
27/03:00pm 20.3 ESE 11 12 1022.8 - 0.0 - - - - - - -
27/02:30pm 19.6 E 12 14 1023.1 - 0.0 - - - - - - -
27/02:00pm 19.4 E 14 16 1023.2 - 0.0 - - - - - - -
27/01:30pm 19.3 E 14 17 1023.5 - 0.0 - - - - - - -
27/01:00pm 20.4 E 15 19 1023.4 - 0.0 - - - - - - -
27/12:30pm 19.4 E 17 20 1023.5 - 0.0 - - - - - - -
27/12:00pm 19.5 E 17 21 1023.6 - 0.0 - - - - - - -
27/11:30am 19.5 E 18 22 1023.7 - 0.0 - - - - - - -
27/11:00am 18.7 E 17 21 1023.9 - 0.0 - - - - - - -
27/10:30am 18.0 E 17 21 1024.1 - 0.0 - - - - - - -
27/10:00am 17.5 E 17 21 1024.3 - 0.0 - - - - - - -
27/09:30am 16.9 E 17 21 1024.3 - 0.0 - - - - - - -
27/09:00am 16.5 E 17 20 1024.1 - 0.0 - - - - - - -
27/08:30am 16.4 E 17 20 1023.9 - 0.0 - - - - - - -
27/08:00am 16.0 E 16 21 1023.8 - 0.0 - - - - - - -
27/07:30am 15.6 E 16 21 1023.4 - 0.0 - - - - - - -
27/07:00am 15.4 E 14 19 1023.4 - 0.0 - - - - - - -
27/06:30am 15.6 E 17 21 1023.0 - 0.0 - - - - - - -
27/06:00am 15.5 E 17 21 1022.6 - 0.0 - - - - - - -
27/05:30am 15.4 ESE 18 23 1022.4 - 0.0 - - - - - - -
27/05:00am 15.3 ESE 17 21 1022.2 - 0.0 - - - - - - -
27/04:30am 15.5 ESE 17 21 1022.1 - 0.0 - - - - - - -
27/04:00am 15.4 ESE 18 22 1022.0 - 0.0 - - - - - - -
27/03:30am 15.4 ESE 17 20 1022.2 - 0.0 - - - - - - -
27/03:00am 15.4 ESE 18 21 1022.5 - 0.0 - - - - - - -
27/02:30am 15.5 ESE 15 18 1023.0 - 0.0 - - - - - - -
27/02:00am 15.3 SE 14 16 1023.4 - 0.0 - - - - - - -
27/01:30am 15.3 SE 13 17 1023.9 - 0.0 - - - - - - -
27/01:00am 15.8 SE 13 15 1024.2 - 0.0 - - - - - - -
27/12:30am 16.1 ESE 12 14 1024.4 - 0.0 - - - - - - -
27/12:00am 15.9 ESE 11 15 1024.4 - 0.0 - - - - - - -
 
Date/Time
EDT
Temp

°C
Wind Pressure Rain
since 9am
mm
Weather Cloud Vis
km
Sea
Height
m
Swell
Dir
 
Speed
knots
Gust
knots
hPa Trend Height
m
Period
s
Dir
26/11:30pm 16.1 ESE 15 19 1024.2 - 0.0 - - - - - - -
26/11:00pm 16.0 ESE 17 22 1024.0 - 0.0 - - - - - - -
26/10:30pm 16.2 SE 17 22 1023.8 - 0.0 - - - - - - -
26/10:00pm 15.9 SE 17 21 1023.6 - 0.0 - - - - - - -
26/09:30pm 16.1 SSE 19 23 1023.3 - 0.0 - - - - - - -
26/09:00pm 16.1 SSE 20 24 1023.2 - 0.0 - - - - - - -
26/08:30pm 16.3 SSE 19 23 1023.2 - 0.0 - - - - - - -
26/08:00pm 16.4 SSE 20 24 1022.9 - 0.0 - - - - - - -
26/07:30pm 16.6 SSE 21 24 1022.8 - 0.0 - - - - - - -
26/07:00pm 16.9 S 21 24 1022.6 - 0.0 - - - - - - -
26/06:30pm 17.1 S 18 21 1022.7 - 0.0 - - - - - - -
26/06:00pm 16.8 S 16 19 1022.8 - 0.0 - - - - - - -
26/05:30pm 17.3 S 17 21 1022.6 - 0.0 - - - - - - -
26/05:00pm 17.8 S 15 19 1023.0 - 0.0 - - - - - - -
26/04:30pm 17.9 S 13 16 1023.2 - 0.0 - - - - - - -
26/04:00pm 17.7 S 12 14 1023.4 - 0.0 - - - - - - -
26/03:30pm 17.5 S 12 14 1023.6 - 0.0 - - - - - - -
26/03:00pm 17.7 S 12 15 1023.6 - 0.0 - - - - - - -
26/02:30pm 17.7 SSE 10 14 1023.9 - 0.0 - - - - - - -
26/02:00pm 17.2 SSE 14 17 1024.2 - 0.0 - - - - - - -
26/01:30pm 16.3 SSE 12 15 1024.2 - 0.0 - - - - - - -
26/01:00pm 17.1 SSE 11 13 1024.4 - 0.0 - - - - - - -
26/12:30pm 17.0 SSE 10 12 1024.6 - 0.0 - - - - - - -
26/12:00pm 17.2 SSE 8 10 1024.8 - 0.0 - - - - - - -
26/11:30am 16.8 SSE 9 11 1024.7 - 0.0 - - - - - - -
26/11:00am 16.2 S 8 10 1024.9 - 0.0 - - - - - - -
26/10:30am 15.9 SSE 7 9 1024.9 - 0.0 - - - - - - -
26/10:00am 16.0 SSE 8 11 1024.7 - 0.0 - - - - - - -
26/09:30am 15.6 SSE 9 11 1024.7 - 0.0 - - - - - - -

Other Formats:

Comma delimited format used in spreadsheet applications
http://www.bom.gov.au/fwo/IDT60701/IDT60701.94804.axf

JavaScript Object Notation format (JSON) in row-major order
http://www.bom.gov.au/fwo/IDT60701/IDT60701.94804.json